createdAt,value
2019-05-18T00:01:03.337Z,29.37
2019-05-18T00:03:32.862Z,27.58
2019-05-18T00:06:02.265Z,28.20
2019-05-18T00:08:31.606Z,27.27
2019-05-18T00:11:01.214Z,26.55
2019-05-18T00:13:30.779Z,27.70
2019-05-18T00:16:00.323Z,29.05
2019-05-18T00:18:29.615Z,30.72
2019-05-18T00:20:59.034Z,27.77
2019-05-18T00:23:28.352Z,30.08
2019-05-18T00:25:57.809Z,29.87
2019-05-18T00:28:27.256Z,29.90
2019-05-18T00:30:56.630Z,28.95
2019-05-18T00:33:25.871Z,30.23
2019-05-18T00:35:55.348Z,27.67
2019-05-18T00:38:24.790Z,30.48
2019-05-18T00:40:54.165Z,29.80
2019-05-18T00:43:23.624Z,29.95
2019-05-18T00:45:53.006Z,30.08
2019-05-18T00:48:22.478Z,34.43
2019-05-18T00:50:51.906Z,33.23
2019-05-18T00:53:21.445Z,30.15
2019-05-18T00:55:50.970Z,34.15
2019-05-18T00:58:20.383Z,32.70
2019-05-18T01:00:49.802Z,32.63
2019-05-18T01:03:19.193Z,32.00
2019-05-18T01:05:48.602Z,33.63
2019-05-18T01:08:17.895Z,33.50
2019-05-18T01:10:47.280Z,33.20
2019-05-18T01:13:16.769Z,36.20
2019-05-18T01:15:46.086Z,34.78
2019-05-18T01:18:15.356Z,34.45
2019-05-18T01:20:45.006Z,38.33
2019-05-18T01:23:14.325Z,36.05
2019-05-18T01:25:43.651Z,35.43
2019-05-18T01:28:13.014Z,32.35
2019-05-18T01:30:42.345Z,38.23
2019-05-18T01:33:11.759Z,35.58
2019-05-18T01:35:52.091Z,35.30
2019-05-18T01:38:21.400Z,36.25
2019-05-18T01:40:50.746Z,36.85
2019-05-18T01:43:20.221Z,37.58
2019-05-18T01:45:49.483Z,36.20
2019-05-18T01:48:18.869Z,37.00
2019-05-18T01:50:48.184Z,37.75
2019-05-18T01:53:17.516Z,38.98
2019-05-18T01:55:46.962Z,36.85
2019-05-18T01:58:16.333Z,40.52
2019-05-18T02:00:45.736Z,38.40
2019-05-18T02:03:15.070Z,39.45
2019-05-18T02:05:44.510Z,38.38
2019-05-18T02:08:13.845Z,39.98
2019-05-18T02:10:43.153Z,39.42
2019-05-18T02:13:12.529Z,41.95
2019-05-18T02:15:41.964Z,39.70
2019-05-18T02:18:11.401Z,38.65
2019-05-18T02:20:40.730Z,41.37
2019-05-18T02:23:10.040Z,39.98
2019-05-18T02:25:39.398Z,41.95
2019-05-18T02:28:08.753Z,41.63
2019-05-18T02:30:38.195Z,44.10
2019-05-18T02:33:07.527Z,42.38
2019-05-18T02:35:36.945Z,42.62
2019-05-18T02:38:19.038Z,40.80
2019-05-18T02:40:49.127Z,41.20
2019-05-18T02:43:18.576Z,42.05
2019-05-18T02:45:47.917Z,41.98
2019-05-18T02:48:17.123Z,42.15
2019-05-18T02:50:46.597Z,44.90
2019-05-18T02:53:16.098Z,43.23
2019-05-18T02:55:45.567Z,43.90
2019-05-18T02:58:14.896Z,42.75
2019-05-18T03:00:44.401Z,42.65
2019-05-18T03:03:13.838Z,41.25
2019-05-18T03:05:44.547Z,42.78
2019-05-18T03:08:13.946Z,45.63
2019-05-18T03:10:43.330Z,43.95
2019-05-18T03:13:12.780Z,44.65
2019-05-18T03:15:42.161Z,44.00
2019-05-18T03:18:11.562Z,47.93
2019-05-18T03:20:40.855Z,47.55
2019-05-18T03:23:10.278Z,47.50
2019-05-18T03:25:39.663Z,47.78
2019-05-18T03:28:09.112Z,48.38
2019-05-18T03:30:38.601Z,48.17
2019-05-18T03:33:08.063Z,48.98
2019-05-18T03:35:37.366Z,45.25
2019-05-18T03:38:06.707Z,46.37
2019-05-18T03:40:36.272Z,43.20
2019-05-18T03:43:05.565Z,43.65
2019-05-18T03:45:34.986Z,40.90
2019-05-18T03:48:04.377Z,45.52
2019-05-18T03:50:33.927Z,41.88
2019-05-18T03:53:03.213Z,39.38
2019-05-18T03:55:33.351Z,40.40
2019-05-18T03:58:02.814Z,38.50
2019-05-18T04:00:32.216Z,38.58
2019-05-18T04:03:01.528Z,36.80
2019-05-18T04:05:31.167Z,39.80
2019-05-18T04:08:00.582Z,41.02
2019-05-18T04:10:29.867Z,38.10
2019-05-18T04:12:59.242Z,38.08
2019-05-18T04:15:28.607Z,36.87
2019-05-18T04:17:57.802Z,38.75
2019-05-18T04:20:27.232Z,36.48
2019-05-18T04:22:57.044Z,37.38
2019-05-18T04:25:26.427Z,38.33
2019-05-18T04:27:55.800Z,38.50
2019-05-18T04:30:25.240Z,37.97
2019-05-18T04:32:54.593Z,38.40
2019-05-18T04:35:23.840Z,36.40
2019-05-18T04:37:53.133Z,37.97
2019-05-18T04:40:22.671Z,38.13
2019-05-18T04:42:51.981Z,37.63
2019-05-18T04:45:21.456Z,38.70
2019-05-18T04:47:50.721Z,38.17
2019-05-18T04:50:20.072Z,40.50
2019-05-18T04:52:49.454Z,36.40
2019-05-18T04:55:18.881Z,38.97
2019-05-18T04:57:48.178Z,37.57
2019-05-18T05:00:17.677Z,37.50
2019-05-18T05:02:47.053Z,40.90
2019-05-18T05:05:16.482Z,41.57
2019-05-18T05:07:45.853Z,40.30
2019-05-18T05:10:15.304Z,38.00
2019-05-18T05:12:44.598Z,39.83
2019-05-18T05:15:14.136Z,39.10
2019-05-18T05:17:43.674Z,38.43
2019-05-18T05:20:19.920Z,36.70
2019-05-18T05:22:45.632Z,37.03
2019-05-18T05:25:16.278Z,36.47
2019-05-18T05:27:45.689Z,35.17
2019-05-18T05:30:15.113Z,36.87
2019-05-18T05:32:44.532Z,37.30
2019-05-18T05:35:13.963Z,38.47
2019-05-18T05:37:43.474Z,36.83
2019-05-18T05:40:12.990Z,34.60
2019-05-18T05:42:42.518Z,34.50
2019-05-18T05:45:12.228Z,36.43
2019-05-18T05:47:41.599Z,33.53
2019-05-18T05:50:11.193Z,34.18
2019-05-18T05:52:40.648Z,36.08
2019-05-18T05:55:10.418Z,32.57
2019-05-18T05:57:39.902Z,33.20
2019-05-18T06:00:09.982Z,32.48
2019-05-18T06:02:39.267Z,29.45
2019-05-18T06:05:08.988Z,31.97
2019-05-18T06:07:38.419Z,30.82
2019-05-18T06:10:08.846Z,27.85
2019-05-18T06:12:38.292Z,29.75
2019-05-18T06:15:09.788Z,29.00
2019-05-18T06:17:39.176Z,27.07
2019-05-18T06:20:08.844Z,24.87
2019-05-18T06:22:38.292Z,25.43
2019-05-18T06:25:08.402Z,25.23
2019-05-18T06:27:37.956Z,22.40
2019-05-18T06:30:08.015Z,22.50
2019-05-18T06:32:37.459Z,21.13
2019-05-18T06:35:07.000Z,21.70
2019-05-18T06:37:36.403Z,20.90
2019-05-18T06:40:06.693Z,18.50
2019-05-18T06:42:36.224Z,20.17
2019-05-18T06:45:06.017Z,17.17
2019-05-18T06:47:38.389Z,16.07
2019-05-18T06:50:11.716Z,18.90
2019-05-18T06:52:39.882Z,17.50
2019-05-18T06:55:09.237Z,17.50
2019-05-18T06:57:39.303Z,17.23
2019-05-18T07:00:11.190Z,15.33
2019-05-18T07:02:40.736Z,13.50
2019-05-18T07:05:10.330Z,12.97
2019-05-18T07:07:39.773Z,14.70
2019-05-18T07:10:09.361Z,13.40
2019-05-18T07:12:38.870Z,14.37
2019-05-18T07:15:08.579Z,14.40
2019-05-18T07:17:37.990Z,13.33
2019-05-18T07:20:08.098Z,13.30
2019-05-18T07:22:37.378Z,13.33
2019-05-18T07:25:06.772Z,13.70
2019-05-18T07:27:36.503Z,14.53
2019-05-18T07:30:06.600Z,13.87
2019-05-18T07:32:36.012Z,14.47
2019-05-18T07:35:05.501Z,12.50
2019-05-18T07:37:35.137Z,15.00
2019-05-18T07:40:05.606Z,13.87
2019-05-18T07:42:35.137Z,15.13
2019-05-18T07:45:04.851Z,14.90
2019-05-18T07:47:34.178Z,15.50
2019-05-18T07:50:03.658Z,13.23
2019-05-18T07:52:33.272Z,13.33
2019-05-18T07:55:02.726Z,13.00
2019-05-18T07:57:32.495Z,14.40
2019-05-18T08:00:01.879Z,13.40
2019-05-18T08:02:31.930Z,12.43
2019-05-18T08:05:01.423Z,11.90
2019-05-18T08:07:30.891Z,11.87
2019-05-18T08:10:00.193Z,12.07
2019-05-18T08:12:29.804Z,10.17
2019-05-18T08:14:59.290Z,10.23
2019-05-18T08:17:28.852Z,11.60
2019-05-18T08:19:58.285Z,10.67
2019-05-18T08:22:27.755Z,12.47
2019-05-18T08:24:57.284Z,11.33
2019-05-18T08:27:26.899Z,10.73
2019-05-18T08:29:56.841Z,11.20
2019-05-18T08:32:26.202Z,11.63
2019-05-18T08:34:55.834Z,10.63
2019-05-18T08:37:25.496Z,10.80
2019-05-18T08:39:54.884Z,10.43
2019-05-18T08:42:24.924Z,9.93
2019-05-18T08:44:55.245Z,11.37
2019-05-18T08:47:25.964Z,11.53
2019-05-18T08:49:54.960Z,10.47
2019-05-18T08:52:24.878Z,11.67
2019-05-18T08:54:53.956Z,10.83
2019-05-18T08:57:23.269Z,12.47
2019-05-18T08:59:52.419Z,12.20
2019-05-18T09:02:32.037Z,9.97
2019-05-18T09:05:04.638Z,10.57
2019-05-18T09:07:31.836Z,10.73
2019-05-18T09:10:00.940Z,11.20
2019-05-18T09:12:30.070Z,11.63
2019-05-18T09:14:59.130Z,11.67
2019-05-18T09:17:28.243Z,12.70
2019-05-18T09:19:58.511Z,11.40
2019-05-18T09:22:27.692Z,12.43
2019-05-18T09:24:56.922Z,11.93
2019-05-18T09:27:26.104Z,12.07
2019-05-18T09:29:55.392Z,11.23
2019-05-18T09:32:24.555Z,12.33
2019-05-18T09:34:54.007Z,11.47
2019-05-18T09:37:23.176Z,9.47
2019-05-18T09:39:52.690Z,9.07
2019-05-18T09:42:21.764Z,8.20
2019-05-18T09:44:50.921Z,9.50
2019-05-18T09:47:20.205Z,10.47
2019-05-18T09:49:49.812Z,10.67
2019-05-18T09:52:18.821Z,10.10
2019-05-18T09:54:47.827Z,9.43
2019-05-18T09:57:16.950Z,9.47
2019-05-18T09:59:46.026Z,9.30
2019-05-18T10:02:15.240Z,10.63
2019-05-18T10:04:44.538Z,9.97
2019-05-18T10:07:13.703Z,9.67
2019-05-18T10:09:42.836Z,9.43
2019-05-18T10:12:12.047Z,9.27
2019-05-18T10:14:41.286Z,8.73
2019-05-18T10:17:10.396Z,9.37
2019-05-18T10:19:39.476Z,10.00
2019-05-18T10:22:08.737Z,9.50
2019-05-18T10:24:38.052Z,10.00
2019-05-18T10:27:12.037Z,9.63
2019-05-18T10:29:41.158Z,8.87
2019-05-18T10:32:10.304Z,9.30
2019-05-18T10:34:39.720Z,9.80
2019-05-18T10:37:08.815Z,9.73
2019-05-18T10:39:38.804Z,8.93
2019-05-18T10:42:08.157Z,9.00
2019-05-18T10:44:37.353Z,8.53
2019-05-18T10:47:06.472Z,9.20
2019-05-18T10:49:35.628Z,9.87
2019-05-18T10:52:04.767Z,11.00
2019-05-18T10:54:33.981Z,11.60
2019-05-18T10:57:03.219Z,11.40
2019-05-18T10:59:32.427Z,10.53
2019-05-18T11:02:01.606Z,10.80
2019-05-18T11:04:30.891Z,10.80
2019-05-18T11:07:00.147Z,11.67
2019-05-18T11:09:29.308Z,11.80
2019-05-18T11:11:58.570Z,13.40
2019-05-18T11:14:27.639Z,12.03
2019-05-18T11:16:56.845Z,11.90
2019-05-18T11:19:25.950Z,10.90
2019-05-18T11:21:55.010Z,10.53
2019-05-18T11:24:24.097Z,11.30
2019-05-18T11:26:53.178Z,12.33
2019-05-18T11:29:23.860Z,11.97
2019-05-18T11:31:53.501Z,11.87
2019-05-18T11:34:22.550Z,12.70
2019-05-18T11:36:51.700Z,11.60
2019-05-18T11:39:20.783Z,10.93
2019-05-18T11:41:49.935Z,10.10
2019-05-18T11:44:19.167Z,10.40
2019-05-18T11:46:48.340Z,10.10
2019-05-18T11:49:17.493Z,9.80
2019-05-18T11:51:46.627Z,9.63
2019-05-18T11:54:15.799Z,10.20
2019-05-18T11:56:45.041Z,10.67
2019-05-18T11:59:15.768Z,9.50
2019-05-18T12:01:48.320Z,9.00
2019-05-18T12:04:17.602Z,10.63
2019-05-18T12:06:47.158Z,10.33
2019-05-18T12:09:16.586Z,7.90
2019-05-18T12:11:45.963Z,8.53
2019-05-18T12:14:15.325Z,7.97
2019-05-18T12:16:44.694Z,7.50
2019-05-18T12:19:14.193Z,6.67
2019-05-18T12:21:43.708Z,6.20
2019-05-18T12:24:15.691Z,6.83
2019-05-18T12:26:44.294Z,6.30
2019-05-18T12:29:13.739Z,7.47
2019-05-18T12:31:43.141Z,6.53
2019-05-18T12:34:12.645Z,5.80
2019-05-18T12:36:42.066Z,6.60
2019-05-18T12:39:11.513Z,7.03
2019-05-18T12:41:40.882Z,6.10
2019-05-18T12:44:10.353Z,7.07
2019-05-18T12:46:40.056Z,5.67
2019-05-18T12:49:09.612Z,5.60
2019-05-18T12:51:38.937Z,5.80
2019-05-18T12:54:08.329Z,6.30
2019-05-18T12:56:37.750Z,6.50
2019-05-18T12:59:07.141Z,6.93
2019-05-18T13:01:45.518Z,6.80
2019-05-18T13:04:12.801Z,6.80
2019-05-18T13:06:42.261Z,6.87
2019-05-18T13:09:11.593Z,6.13
2019-05-18T13:11:40.999Z,6.30
2019-05-18T13:14:10.422Z,7.30
2019-05-18T13:16:39.804Z,6.10
2019-05-18T13:19:09.115Z,6.10
2019-05-18T13:21:38.649Z,7.57
2019-05-18T13:24:08.074Z,5.30
2019-05-18T13:26:37.517Z,5.00
2019-05-18T13:29:06.930Z,4.13
2019-05-18T13:31:36.451Z,4.67
2019-05-18T13:34:05.751Z,4.63
2019-05-18T13:36:35.453Z,4.73
2019-05-18T13:39:06.107Z,4.60
2019-05-18T13:41:35.496Z,4.60
2019-05-18T13:44:05.054Z,5.33
2019-05-18T13:46:34.364Z,5.13
2019-05-18T13:49:03.848Z,4.70
2019-05-18T13:51:33.218Z,4.27
2019-05-18T13:54:02.507Z,4.53
2019-05-18T13:56:31.898Z,3.40
2019-05-18T13:59:01.160Z,4.30
2019-05-18T14:01:30.467Z,3.97
2019-05-18T14:03:59.888Z,4.03
2019-05-18T14:06:29.280Z,4.10
2019-05-18T14:08:58.676Z,4.07
2019-05-18T14:11:28.055Z,3.63
2019-05-18T14:13:57.541Z,4.63
2019-05-18T14:16:27.073Z,5.17
2019-05-18T14:18:56.427Z,4.63
2019-05-18T14:21:25.888Z,3.40
2019-05-18T14:23:55.100Z,3.90
2019-05-18T14:26:24.598Z,4.00
2019-05-18T14:28:53.946Z,4.30
2019-05-18T14:31:23.328Z,3.33
2019-05-18T14:33:52.742Z,3.57
2019-05-18T14:36:22.117Z,3.40
2019-05-18T14:38:51.469Z,3.60
2019-05-18T14:41:20.845Z,4.10
2019-05-18T14:43:50.262Z,3.57
2019-05-18T14:46:20.150Z,3.60
2019-05-18T14:48:49.599Z,3.03
2019-05-18T14:51:19.084Z,3.70
2019-05-18T14:53:48.466Z,3.27
2019-05-18T14:56:17.859Z,3.77
2019-05-18T14:58:47.141Z,3.60
2019-05-18T15:01:16.575Z,3.67
2019-05-18T15:03:45.980Z,3.60
2019-05-18T15:06:15.176Z,3.47
2019-05-18T15:08:44.634Z,3.83
2019-05-18T15:11:13.947Z,3.40
2019-05-18T15:13:43.398Z,4.13
2019-05-18T15:16:12.817Z,3.30
2019-05-18T15:18:42.205Z,3.67
2019-05-18T15:21:11.551Z,4.00
2019-05-18T15:23:40.894Z,3.90
2019-05-18T15:26:10.427Z,4.07
2019-05-18T15:28:39.767Z,3.77
2019-05-18T15:31:09.115Z,4.10
2019-05-18T15:33:38.534Z,4.00
2019-05-18T15:36:07.960Z,3.50
2019-05-18T15:38:37.451Z,3.60
2019-05-18T15:41:06.952Z,3.63
2019-05-18T15:43:36.363Z,3.53
2019-05-18T15:46:05.932Z,4.93
2019-05-18T15:48:35.353Z,3.70
2019-05-18T15:51:05.200Z,3.23
2019-05-18T15:53:34.327Z,3.83
2019-05-18T15:56:06.140Z,3.53
2019-05-18T15:58:34.272Z,3.67
2019-05-18T16:01:03.479Z,4.30
2019-05-18T16:03:32.569Z,3.77
2019-05-18T16:06:01.840Z,4.10
2019-05-18T16:08:30.998Z,3.03
2019-05-18T16:11:00.209Z,3.30
2019-05-18T16:13:29.303Z,3.67
2019-05-18T16:15:58.497Z,3.20
2019-05-18T16:18:27.583Z,3.53
2019-05-18T16:20:56.832Z,3.83
2019-05-18T16:23:26.042Z,3.53
2019-05-18T16:25:55.133Z,3.50
2019-05-18T16:28:24.324Z,4.77
2019-05-18T16:30:53.560Z,4.17
2019-05-18T16:33:22.644Z,5.00
2019-05-18T16:35:51.775Z,4.27
2019-05-18T16:38:21.107Z,4.70
2019-05-18T16:40:50.509Z,3.80
2019-05-18T16:43:19.679Z,4.87
2019-05-18T16:45:48.766Z,4.67
2019-05-18T16:48:17.878Z,4.23
2019-05-18T16:50:46.961Z,4.00
2019-05-18T16:53:16.200Z,4.10
2019-05-18T16:55:45.279Z,4.17
2019-05-18T16:58:14.676Z,3.43
2019-05-18T17:00:43.946Z,5.27
2019-05-18T17:03:13.216Z,3.87
2019-05-18T17:05:42.186Z,13.63
2019-05-18T17:08:11.283Z,4.10
2019-05-18T17:10:40.435Z,3.20
2019-05-18T17:13:09.644Z,3.50
2019-05-18T17:15:39.242Z,4.40
2019-05-18T17:18:08.522Z,3.40
2019-05-18T17:20:37.898Z,3.30
2019-05-18T17:23:07.056Z,4.80
2019-05-18T17:25:36.149Z,3.53
2019-05-18T17:28:05.403Z,3.47
2019-05-18T17:30:34.660Z,3.40
2019-05-18T17:33:03.832Z,4.30
2019-05-18T17:35:33.124Z,4.50
2019-05-18T17:38:02.144Z,4.27
2019-05-18T17:40:31.252Z,4.23
2019-05-18T17:43:00.425Z,4.03
2019-05-18T17:45:29.641Z,5.20
2019-05-18T17:47:58.727Z,4.00
2019-05-18T17:50:28.270Z,4.00
2019-05-18T17:52:57.341Z,4.17
2019-05-18T17:55:26.665Z,4.17
2019-05-18T17:57:55.847Z,4.17
2019-05-18T18:00:24.948Z,3.60
2019-05-18T18:02:54.133Z,3.97
2019-05-18T18:05:23.218Z,5.03
2019-05-18T18:07:55.530Z,4.50
2019-05-18T18:10:23.887Z,3.83
2019-05-18T18:12:53.017Z,3.63
2019-05-18T18:15:22.291Z,3.87
2019-05-18T18:17:51.560Z,4.40
2019-05-18T18:20:20.926Z,4.70
2019-05-18T18:22:49.972Z,4.80
2019-05-18T18:25:19.176Z,4.80
2019-05-18T18:27:48.744Z,4.67
2019-05-18T18:30:18.417Z,4.90
2019-05-18T18:32:48.072Z,4.57
2019-05-18T18:35:18.212Z,5.13
2019-05-18T18:37:47.360Z,11.27
2019-05-18T18:40:17.141Z,5.60
2019-05-18T18:42:46.265Z,5.50
2019-05-18T18:45:15.771Z,5.00
2019-05-18T18:47:44.906Z,5.67
2019-05-18T18:50:14.403Z,5.80
2019-05-18T18:52:43.715Z,5.90
2019-05-18T18:55:12.893Z,6.30
2019-05-18T18:57:45.488Z,5.70
2019-05-18T19:00:16.448Z,7.10
2019-05-18T19:02:45.621Z,7.70
2019-05-18T19:05:14.830Z,7.43
2019-05-18T19:07:44.681Z,9.00
2019-05-18T19:10:14.642Z,9.83
2019-05-18T19:12:43.901Z,12.13
2019-05-18T19:15:13.956Z,8.27
2019-05-18T19:17:43.270Z,12.40
2019-05-18T19:20:13.860Z,8.10
2019-05-18T19:22:43.295Z,13.17
2019-05-18T19:25:13.736Z,14.57
2019-05-18T19:27:54.109Z,9.20
2019-05-18T19:30:13.744Z,7.87
2019-05-18T19:32:42.928Z,7.50
2019-05-18T19:35:15.242Z,11.73
2019-05-18T19:37:44.509Z,17.67
2019-05-18T19:40:13.814Z,16.37
2019-05-18T19:42:42.955Z,18.07
2019-05-18T19:45:12.497Z,16.10
2019-05-18T19:47:41.730Z,26.87
2019-05-18T19:50:11.680Z,21.20
2019-05-18T19:52:41.085Z,19.77
2019-05-18T19:55:10.368Z,18.50
2019-05-18T19:57:39.486Z,21.03
2019-05-18T20:00:09.602Z,21.00
2019-05-18T20:02:38.769Z,18.13
2019-05-18T20:05:09.298Z,19.00
2019-05-18T20:07:38.686Z,15.93
2019-05-18T20:10:08.757Z,18.27
2019-05-18T20:12:38.028Z,17.90
2019-05-18T20:15:09.635Z,18.00
2019-05-18T20:17:39.217Z,18.33
2019-05-18T20:20:09.689Z,18.33
2019-05-18T20:22:39.112Z,17.47
2019-05-18T20:25:08.749Z,18.20
2019-05-18T20:27:37.944Z,19.13
2019-05-18T20:30:08.237Z,19.20
2019-05-18T20:32:37.426Z,18.43
2019-05-18T20:35:09.845Z,21.07
2019-05-18T20:37:39.038Z,20.00
2019-05-18T20:40:08.415Z,18.30
2019-05-18T20:42:37.940Z,19.07
2019-05-18T20:45:08.169Z,19.33
2019-05-18T20:47:37.478Z,18.60
2019-05-18T20:50:07.110Z,21.20
2019-05-18T20:52:36.457Z,19.00
2019-05-18T20:55:06.384Z,19.60
2019-05-18T20:57:35.618Z,21.20
2019-05-18T21:00:04.966Z,20.50
2019-05-18T21:02:34.077Z,22.83
2019-05-18T21:05:03.220Z,21.63
2019-05-18T21:07:32.536Z,24.67
2019-05-18T21:10:02.123Z,23.40
2019-05-18T21:12:31.166Z,22.10
2019-05-18T21:15:00.462Z,24.37
2019-05-18T21:17:29.531Z,23.77
2019-05-18T21:19:58.666Z,24.80
2019-05-18T21:22:28.249Z,25.00
2019-05-18T21:24:57.313Z,28.50
2019-05-18T21:27:26.513Z,25.43
2019-05-18T21:29:55.726Z,24.60
2019-05-18T21:32:25.280Z,25.80
2019-05-18T21:34:54.404Z,24.97
2019-05-18T21:37:23.536Z,24.23
2019-05-18T21:39:52.733Z,25.23
2019-05-18T21:42:22.304Z,26.20
2019-05-18T21:44:51.585Z,26.13
2019-05-18T21:47:20.800Z,35.40
2019-05-18T21:49:49.846Z,35.13
2019-05-18T21:52:19.084Z,32.23
2019-05-18T21:54:48.446Z,33.33
2019-05-18T21:57:17.908Z,31.33
2019-05-18T21:59:49.108Z,27.80
2019-05-18T22:02:18.550Z,29.57
2019-05-18T22:04:48.889Z,26.63
2019-05-18T22:07:18.381Z,26.40
2019-05-18T22:09:47.489Z,25.87
2019-05-18T22:12:16.719Z,28.77
2019-05-18T22:14:45.784Z,27.10
2019-05-18T22:17:14.851Z,28.27
2019-05-18T22:19:43.885Z,28.17
2019-05-18T22:22:13.016Z,27.40
2019-05-18T22:24:42.128Z,28.73
2019-05-18T22:27:11.249Z,29.07
2019-05-18T22:29:40.230Z,28.38
2019-05-18T22:32:09.447Z,28.70
2019-05-18T22:34:38.523Z,27.82
2019-05-18T22:37:07.578Z,28.07
2019-05-18T22:39:37.853Z,27.00
2019-05-18T22:42:07.357Z,28.07
2019-05-18T22:44:36.587Z,26.60
2019-05-18T22:47:05.729Z,26.50
2019-05-18T22:49:34.857Z,27.45
2019-05-18T22:52:04.159Z,27.50
2019-05-18T22:54:33.546Z,25.90
2019-05-18T22:57:02.836Z,27.77
2019-05-18T22:59:32.069Z,26.20
2019-05-18T23:02:01.256Z,25.85
2019-05-18T23:04:30.589Z,24.50
2019-05-18T23:06:59.583Z,25.52
2019-05-18T23:09:29.576Z,26.23
2019-05-18T23:11:58.833Z,25.77
2019-05-18T23:14:27.973Z,26.40
2019-05-18T23:17:00.276Z,27.20
2019-05-18T23:19:29.513Z,25.40
2019-05-18T23:21:58.636Z,26.48
2019-05-18T23:24:27.807Z,27.13
2019-05-18T23:26:57.430Z,29.10
2019-05-18T23:29:26.477Z,27.02
2019-05-18T23:31:55.659Z,26.27
2019-05-18T23:34:24.908Z,27.67
2019-05-18T23:36:54.072Z,26.23
2019-05-18T23:39:23.485Z,28.98
2019-05-18T23:41:52.606Z,28.57
2019-05-18T23:44:21.718Z,28.98
2019-05-18T23:46:50.935Z,25.65
2019-05-18T23:49:19.954Z,27.00
2019-05-18T23:51:49.220Z,25.32
2019-05-18T23:54:18.309Z,25.77
2019-05-18T23:56:47.506Z,25.30
2019-05-18T23:59:16.775Z,25.37
